University of NC, North Carolina
Current Conditions -  °F | °C
As of 7:17 PM on Sunday 23 Nov 2014 (Local Time) from KILM Reporting Station
Light Rain Light Rain  
Wind Chill: 67°   Ceiling: 1800
Heat Index: 67°   Visibility: 6mi
Dew Point: 64°   Wind: 13mph
Humidity: 90%   Direction: 150°SSE
Pressure: 29.94"   Gusts: 22mph
Location:  34.2215°N, 77.8804°W
Report Text: KILM 240017Z 15011G19KT 6SM -RA BR BKN018 OVC044 19/18 A2994 RMK AO2 P0003 T01940178
Loading
Personal Weather Stations






























Interactive Weather Map New forecast layout! Learn more

10-Day Weather Forecast

Advertisements
Track Severe Weather on mobile